Gila Bend, Arizona
Current Conditions -  °F | °C
As of 7:56 AM on Monday 22 Dec 2014 (Local Time) from KGXF Reporting Station
Few Clouds Few Clouds  
Wind Chill: 42°   Ceiling: Unl
Heat Index: 44°   Visibility: 10mi
Dew Point: 40°   Wind: 5mph
Humidity: 86%   Direction: 150°SSE
Pressure: 30.04"   Gusts: NA
Location:  32.95°N, 112.72°W
Report Text: KGXF 221456Z 15004KT 10SM FEW250 07/05 A3004 RMK AO2A CONTRAILS SLP171 T00680046
Loading
Personal Weather Stations






























Interactive Weather Map New forecast layout! Learn more

10-Day Weather Forecast

Advertisements
Track Severe Weather on mobile